EmailTwitter


Observations de surface / France / LFBD (07510)

Régions: Québec | Canada | États-Unis | Europe | France | UK | Ailleurs
Station
Affichage
Infos & localisation pour LFBD (07510) | Aide pour décoder les METARs

Observations prises le 2017-07-23 à 22H30 UTC à BORDEAUX/MERIGNA, FR (LFBD)

Etat du ciel: couvert.

Obstacle(s) à la visibilité: faible pluie.

Température: 19.0 Celsius

Point de rosée: 18.0 Celsius

Humidité relative: 94%

Indice Humidex: 25.

Vents: Sud-ouest à 19 km/h ou 10 noeuds.

Pression au niveau moyen de la mer: 101.80 kilopascals.

Visibilité horizontale: 4.35 milles terrestres ou 6.96 kilomètres.

Hauteur du plafond: 152 mètres ( 500 pieds ).

Observation METAR:

LFBD 232230Z AUTO 24010KT 7000 -RA BKN005/// OVC009/// ///TCU 19/18 Q1018 TEMPO

3000 -RA OVC005=